sensor_id;sensor_type;location;lat;lon;timestamp;P1;durP1;ratioP1;P2;durP2;ratioP2
32365;SDS011;18837;46.832;16.838;2022-08-30T00:01:54;3.30;;;3.00;;
32365;SDS011;18837;46.832;16.838;2022-08-30T00:07:16;4.23;;;2.47;;
32365;SDS011;18837;46.832;16.838;2022-08-30T00:09:41;2.80;;;2.60;;
32365;SDS011;18837;46.832;16.838;2022-08-30T00:12:07;2.80;;;2.60;;
32365;SDS011;18837;46.832;16.838;2022-08-30T00:14:33;2.90;;;2.70;;
32365;SDS011;18837;46.832;16.838;2022-08-30T00:16:59;3.40;;;2.47;;
32365;SDS011;18837;46.832;16.838;2022-08-30T00:19:25;2.93;;;2.60;;
32365;SDS011;18837;46.832;16.838;2022-08-30T00:21:51;5.93;;;3.10;;
32365;SDS011;18837;46.832;16.838;2022-08-30T00:24:16;3.13;;;2.83;;
32365;SDS011;18837;46.832;16.838;2022-08-30T00:26:42;4.10;;;2.73;;
32365;SDS011;18837;46.832;16.838;2022-08-30T00:29:08;3.53;;;2.73;;
32365;SDS011;18837;46.832;16.838;2022-08-30T00:31:33;2.93;;;2.50;;
32365;SDS011;18837;46.832;16.838;2022-08-30T00:34:05;3.20;;;2.90;;
32365;SDS011;18837;46.832;16.838;2022-08-30T00:42:08;3.07;;;2.80;;
32365;SDS011;18837;46.832;16.838;2022-08-30T00:44:35;2.90;;;2.70;;
32365;SDS011;18837;46.832;16.838;2022-08-30T00:47:01;2.67;;;2.47;;
32365;SDS011;18837;46.832;16.838;2022-08-30T00:49:27;2.60;;;2.40;;
32365;SDS011;18837;46.832;16.838;2022-08-30T00:51:54;3.10;;;2.70;;
32365;SDS011;18837;46.832;16.838;2022-08-30T00:54:20;3.00;;;2.70;;
32365;SDS011;18837;46.832;16.838;2022-08-30T00:56:52;3.53;;;3.23;;
32365;SDS011;18837;46.832;16.838;2022-08-30T00:59:18;3.63;;;3.07;;
32365;SDS011;18837;46.832;16.838;2022-08-30T01:01:46;3.00;;;2.80;;
32365;SDS011;18837;46.832;16.838;2022-08-30T01:04:11;3.00;;;2.80;;
32365;SDS011;18837;46.832;16.838;2022-08-30T01:06:39;2.93;;;2.50;;
32365;SDS011;18837;46.832;16.838;2022-08-30T01:09:05;5.07;;;2.77;;
32365;SDS011;18837;46.832;16.838;2022-08-30T01:11:47;3.07;;;2.77;;
32365;SDS011;18837;46.832;16.838;2022-08-30T01:14:25;2.90;;;2.60;;
32365;SDS011;18837;46.832;16.838;2022-08-30T01:16:52;3.40;;;2.77;;
32365;SDS011;18837;46.832;16.838;2022-08-30T01:24:57;2.93;;;2.63;;
32365;SDS011;18837;46.832;16.838;2022-08-30T01:27:24;3.77;;;2.80;;
32365;SDS011;18837;46.832;16.838;2022-08-30T01:29:56;2.93;;;2.70;;
32365;SDS011;18837;46.832;16.838;2022-08-30T01:32:24;3.70;;;3.17;;
32365;SDS011;18837;46.832;16.838;2022-08-30T01:34:53;2.70;;;2.50;;
32365;SDS011;18837;46.832;16.838;2022-08-30T01:37:24;4.90;;;3.20;;
32365;SDS011;18837;46.832;16.838;2022-08-30T01:39:54;4.03;;;2.83;;
32365;SDS011;18837;46.832;16.838;2022-08-30T01:42:20;2.60;;;2.40;;
32365;SDS011;18837;46.832;16.838;2022-08-30T01:44:54;3.57;;;2.77;;
32365;SDS011;18837;46.832;16.838;2022-08-30T01:50:23;2.83;;;2.63;;
32365;SDS011;18837;46.832;16.838;2022-08-30T01:52:49;5.57;;;2.83;;
32365;SDS011;18837;46.832;16.838;2022-08-30T01:55:14;3.27;;;2.97;;
32365;SDS011;18837;46.832;16.838;2022-08-30T01:57:40;3.10;;;2.60;;
32365;SDS011;18837;46.832;16.838;2022-08-30T02:00:07;4.37;;;3.20;;
32365;SDS011;18837;46.832;16.838;2022-08-30T02:02:34;4.07;;;2.83;;
32365;SDS011;18837;46.832;16.838;2022-08-30T02:05:03;5.93;;;3.37;;
32365;SDS011;18837;46.832;16.838;2022-08-30T02:07:30;2.93;;;2.73;;
32365;SDS011;18837;46.832;16.838;2022-08-30T02:09:56;4.43;;;2.80;;
32365;SDS011;18837;46.832;16.838;2022-08-30T02:12:21;3.03;;;2.80;;
32365;SDS011;18837;46.832;16.838;2022-08-30T02:14:47;3.10;;;2.80;;
32365;SDS011;18837;46.832;16.838;2022-08-30T02:17:14;3.50;;;3.00;;
32365;SDS011;18837;46.832;16.838;2022-08-30T02:19:58;3.10;;;2.70;;
32365;SDS011;18837;46.832;16.838;2022-08-30T02:25:13;3.07;;;2.63;;
32365;SDS011;18837;46.832;16.838;2022-08-30T02:27:39;3.40;;;3.10;;
32365;SDS011;18837;46.832;16.838;2022-08-30T02:30:05;2.77;;;2.57;;
32365;SDS011;18837;46.832;16.838;2022-08-30T02:32:32;2.80;;;2.60;;
32365;SDS011;18837;46.832;16.838;2022-08-30T02:34:58;3.17;;;2.80;;
32365;SDS011;18837;46.832;16.838;2022-08-30T02:37:24;3.13;;;2.83;;
32365;SDS011;18837;46.832;16.838;2022-08-30T02:39:54;3.77;;;2.87;;
32365;SDS011;18837;46.832;16.838;2022-08-30T02:42:20;3.57;;;3.27;;
32365;SDS011;18837;46.832;16.838;2022-08-30T02:44:46;4.50;;;2.83;;
32365;SDS011;18837;46.832;16.838;2022-08-30T02:47:11;3.40;;;2.83;;
32365;SDS011;18837;46.832;16.838;2022-08-30T02:49:37;3.13;;;2.93;;
32365;SDS011;18837;46.832;16.838;2022-08-30T02:52:03;3.40;;;3.10;;
32365;SDS011;18837;46.832;16.838;2022-08-30T03:00:11;3.77;;;3.07;;
32365;SDS011;18837;46.832;16.838;2022-08-30T03:02:39;3.43;;;3.13;;
32365;SDS011;18837;46.832;16.838;2022-08-30T03:05:09;3.77;;;3.20;;
32365;SDS011;18837;46.832;16.838;2022-08-30T03:07:36;3.00;;;2.70;;
32365;SDS011;18837;46.832;16.838;2022-08-30T03:10:03;3.60;;;3.30;;
32365;SDS011;18837;46.832;16.838;2022-08-30T03:12:29;4.20;;;3.27;;
32365;SDS011;18837;46.832;16.838;2022-08-30T03:15:02;3.70;;;3.30;;
32365;SDS011;18837;46.832;16.838;2022-08-30T03:17:32;3.63;;;3.27;;
32365;SDS011;18837;46.832;16.838;2022-08-30T03:19:58;3.47;;;3.17;;
32365;SDS011;18837;46.832;16.838;2022-08-30T03:22:26;3.80;;;3.40;;
32365;SDS011;18837;46.832;16.838;2022-08-30T03:24:52;4.03;;;3.63;;
32365;SDS011;18837;46.832;16.838;2022-08-30T03:27:22;4.00;;;3.60;;
32365;SDS011;18837;46.832;16.838;2022-08-30T03:30:06;4.37;;;3.43;;
32365;SDS011;18837;46.832;16.838;2022-08-30T03:32:39;3.80;;;3.50;;
32365;SDS011;18837;46.832;16.838;2022-08-30T03:35:06;3.67;;;3.37;;
32365;SDS011;18837;46.832;16.838;2022-08-30T03:37:33;3.53;;;3.23;;
32365;SDS011;18837;46.832;16.838;2022-08-30T03:39:59;4.00;;;3.20;;
32365;SDS011;18837;46.832;16.838;2022-08-30T03:42:24;5.33;;;3.70;;
32365;SDS011;18837;46.832;16.838;2022-08-30T03:44:52;3.87;;;3.27;;
32365;SDS011;18837;46.832;16.838;2022-08-30T03:47:25;3.77;;;3.40;;
32365;SDS011;18837;46.832;16.838;2022-08-30T03:49:54;3.77;;;3.03;;
32365;SDS011;18837;46.832;16.838;2022-08-30T03:52:20;3.43;;;3.13;;
32365;SDS011;18837;46.832;16.838;2022-08-30T03:54:46;3.40;;;3.07;;
32365;SDS011;18837;46.832;16.838;2022-08-30T03:57:11;5.43;;;3.37;;
32365;SDS011;18837;46.832;16.838;2022-08-30T03:59:37;5.13;;;3.50;;
32365;SDS011;18837;46.832;16.838;2022-08-30T04:02:02;5.43;;;3.30;;
32365;SDS011;18837;46.832;16.838;2022-08-30T04:04:41;4.17;;;3.30;;
32365;SDS011;18837;46.832;16.838;2022-08-30T04:07:19;4.00;;;3.50;;
32365;SDS011;18837;46.832;16.838;2022-08-30T04:09:45;3.90;;;3.50;;
32365;SDS011;18837;46.832;16.838;2022-08-30T04:12:11;3.90;;;3.50;;
32365;SDS011;18837;46.832;16.838;2022-08-30T04:14:37;4.27;;;3.27;;
32365;SDS011;18837;46.832;16.838;2022-08-30T04:17:02;3.80;;;3.40;;
32365;SDS011;18837;46.832;16.838;2022-08-30T04:19:28;4.57;;;3.77;;
32365;SDS011;18837;46.832;16.838;2022-08-30T04:22:06;4.00;;;3.70;;
32365;SDS011;18837;46.832;16.838;2022-08-30T04:24:32;4.70;;;3.80;;
32365;SDS011;18837;46.832;16.838;2022-08-30T04:26:58;4.80;;;3.30;;
32365;SDS011;18837;46.832;16.838;2022-08-30T04:29:25;3.90;;;3.47;;
32365;SDS011;18837;46.832;16.838;2022-08-30T04:31:50;4.03;;;3.63;;
32365;SDS011;18837;46.832;16.838;2022-08-30T04:34:16;4.10;;;3.30;;
32365;SDS011;18837;46.832;16.838;2022-08-30T04:36:42;8.20;;;3.90;;
32365;SDS011;18837;46.832;16.838;2022-08-30T04:39:19;3.90;;;3.50;;
32365;SDS011;18837;46.832;16.838;2022-08-30T04:41:46;3.97;;;3.60;;
32365;SDS011;18837;46.832;16.838;2022-08-30T04:44:12;4.20;;;3.80;;
32365;SDS011;18837;46.832;16.838;2022-08-30T04:46:39;4.70;;;3.30;;
32365;SDS011;18837;46.832;16.838;2022-08-30T04:49:05;4.60;;;4.13;;
32365;SDS011;18837;46.832;16.838;2022-08-30T04:51:31;3.83;;;3.53;;
32365;SDS011;18837;46.832;16.838;2022-08-30T04:53:56;5.23;;;3.93;;
32365;SDS011;18837;46.832;16.838;2022-08-30T04:56:23;3.53;;;3.23;;
32365;SDS011;18837;46.832;16.838;2022-08-30T04:59:02;3.33;;;3.03;;
32365;SDS011;18837;46.832;16.838;2022-08-30T05:01:31;4.43;;;3.50;;
32365;SDS011;18837;46.832;16.838;2022-08-30T05:03:57;5.60;;;3.67;;
32365;SDS011;18837;46.832;16.838;2022-08-30T05:06:26;4.10;;;3.80;;
32365;SDS011;18837;46.832;16.838;2022-08-30T05:08:55;4.90;;;3.63;;
32365;SDS011;18837;46.832;16.838;2022-08-30T05:11:21;3.70;;;3.40;;
32365;SDS011;18837;46.832;16.838;2022-08-30T05:13:56;4.90;;;3.50;;
32365;SDS011;18837;46.832;16.838;2022-08-30T05:16:34;6.30;;;3.63;;
32365;SDS011;18837;46.832;16.838;2022-08-30T05:19:00;5.20;;;3.90;;
32365;SDS011;18837;46.832;16.838;2022-08-30T05:21:26;3.93;;;3.53;;
32365;SDS011;18837;46.832;16.838;2022-08-30T05:23:53;4.40;;;3.40;;
32365;SDS011;18837;46.832;16.838;2022-08-30T05:26:25;4.47;;;3.97;;
32365;SDS011;18837;46.832;16.838;2022-08-30T05:28:52;3.50;;;3.20;;
32365;SDS011;18837;46.832;16.838;2022-08-30T05:31:25;3.90;;;3.60;;
32365;SDS011;18837;46.832;16.838;2022-08-30T05:33:56;4.47;;;3.97;;
32365;SDS011;18837;46.832;16.838;2022-08-30T05:36:23;4.77;;;3.57;;
32365;SDS011;18837;46.832;16.838;2022-08-30T05:38:51;5.50;;;4.10;;
32365;SDS011;18837;46.832;16.838;2022-08-30T05:41:17;4.40;;;3.83;;
32365;SDS011;18837;46.832;16.838;2022-08-30T05:43:45;5.93;;;4.10;;
32365;SDS011;18837;46.832;16.838;2022-08-30T05:46:11;4.53;;;4.00;;
32365;SDS011;18837;46.832;16.838;2022-08-30T05:51:46;4.33;;;3.93;;
32365;SDS011;18837;46.832;16.838;2022-08-30T05:54:13;4.17;;;3.77;;
32365;SDS011;18837;46.832;16.838;2022-08-30T05:56:40;5.47;;;3.90;;
32365;SDS011;18837;46.832;16.838;2022-08-30T05:59:08;4.20;;;3.77;;
32365;SDS011;18837;46.832;16.838;2022-08-30T06:01:38;4.40;;;4.00;;
32365;SDS011;18837;46.832;16.838;2022-08-30T06:04:06;5.47;;;4.13;;
32365;SDS011;18837;46.832;16.838;2022-08-30T06:06:36;5.30;;;4.20;;
32365;SDS011;18837;46.832;16.838;2022-08-30T06:09:07;5.97;;;4.00;;
32365;SDS011;18837;46.832;16.838;2022-08-30T06:11:34;5.17;;;4.10;;
32365;SDS011;18837;46.832;16.838;2022-08-30T06:14:00;4.70;;;4.20;;
32365;SDS011;18837;46.832;16.838;2022-08-30T06:16:27;4.73;;;4.27;;
32365;SDS011;18837;46.832;16.838;2022-08-30T06:18:54;4.47;;;4.10;;
32365;SDS011;18837;46.832;16.838;2022-08-30T06:21:31;5.43;;;4.13;;
32365;SDS011;18837;46.832;16.838;2022-08-30T06:27:01;6.97;;;4.53;;
32365;SDS011;18837;46.832;16.838;2022-08-30T06:29:27;4.93;;;4.53;;
32365;SDS011;18837;46.832;16.838;2022-08-30T06:31:53;4.87;;;4.20;;
32365;SDS011;18837;46.832;16.838;2022-08-30T06:34:20;5.17;;;4.10;;
32365;SDS011;18837;46.832;16.838;2022-08-30T06:36:46;5.73;;;4.40;;
32365;SDS011;18837;46.832;16.838;2022-08-30T06:39:11;5.53;;;4.93;;
32365;SDS011;18837;46.832;16.838;2022-08-30T06:41:39;5.20;;;4.70;;
32365;SDS011;18837;46.832;16.838;2022-08-30T06:44:05;5.07;;;4.37;;
32365;SDS011;18837;46.832;16.838;2022-08-30T06:46:34;6.97;;;4.30;;
32365;SDS011;18837;46.832;16.838;2022-08-30T06:49:01;5.10;;;4.60;;
32365;SDS011;18837;46.832;16.838;2022-08-30T06:51:29;5.70;;;4.80;;
32365;SDS011;18837;46.832;16.838;2022-08-30T06:53:59;4.60;;;4.20;;
32365;SDS011;18837;46.832;16.838;2022-08-30T07:02:04;6.50;;;4.70;;
32365;SDS011;18837;46.832;16.838;2022-08-30T07:04:31;5.57;;;4.60;;
32365;SDS011;18837;46.832;16.838;2022-08-30T07:06:57;5.53;;;4.43;;
32365;SDS011;18837;46.832;16.838;2022-08-30T07:09:23;5.17;;;3.90;;
32365;SDS011;18837;46.832;16.838;2022-08-30T07:11:49;5.63;;;4.73;;
32365;SDS011;18837;46.832;16.838;2022-08-30T07:14:15;4.90;;;4.40;;
32365;SDS011;18837;46.832;16.838;2022-08-30T07:16:46;5.03;;;4.30;;
32365;SDS011;18837;46.832;16.838;2022-08-30T07:19:12;5.00;;;4.50;;
32365;SDS011;18837;46.832;16.838;2022-08-30T07:21:39;5.47;;;4.33;;
32365;SDS011;18837;46.832;16.838;2022-08-30T07:24:09;4.93;;;4.33;;
32365;SDS011;18837;46.832;16.838;2022-08-30T07:26:41;5.47;;;4.10;;
32365;SDS011;18837;46.832;16.838;2022-08-30T07:29:10;5.80;;;4.67;;
32365;SDS011;18837;46.832;16.838;2022-08-30T07:31:37;4.50;;;4.10;;
32365;SDS011;18837;46.832;16.838;2022-08-30T07:34:15;5.20;;;4.67;;
32365;SDS011;18837;46.832;16.838;2022-08-30T07:37:01;5.17;;;4.20;;
32365;SDS011;18837;46.832;16.838;2022-08-30T07:39:27;4.97;;;4.47;;
32365;SDS011;18837;46.832;16.838;2022-08-30T07:41:53;5.50;;;3.90;;
32365;SDS011;18837;46.832;16.838;2022-08-30T07:44:19;5.90;;;4.47;;
32365;SDS011;18837;46.832;16.838;2022-08-30T07:46:45;5.27;;;4.77;;
32365;SDS011;18837;46.832;16.838;2022-08-30T07:49:11;4.80;;;4.40;;
32365;SDS011;18837;46.832;16.838;2022-08-30T07:51:38;5.57;;;4.70;;
32365;SDS011;18837;46.832;16.838;2022-08-30T07:54:05;4.70;;;4.30;;
32365;SDS011;18837;46.832;16.838;2022-08-30T07:56:31;5.60;;;4.67;;
32365;SDS011;18837;46.832;16.838;2022-08-30T07:58:56;4.30;;;3.90;;
32365;SDS011;18837;46.832;16.838;2022-08-30T08:01:22;4.53;;;4.13;;
32365;SDS011;18837;46.832;16.838;2022-08-30T08:03:48;4.83;;;4.33;;
32365;SDS011;18837;46.832;16.838;2022-08-30T08:09:16;4.40;;;3.90;;
32365;SDS011;18837;46.832;16.838;2022-08-30T08:11:42;4.90;;;4.40;;
32365;SDS011;18837;46.832;16.838;2022-08-30T08:14:08;5.97;;;4.00;;
32365;SDS011;18837;46.832;16.838;2022-08-30T08:16:34;4.57;;;4.17;;
32365;SDS011;18837;46.832;16.838;2022-08-30T08:19:01;4.13;;;3.80;;
32365;SDS011;18837;46.832;16.838;2022-08-30T08:21:28;4.80;;;3.97;;
32365;SDS011;18837;46.832;16.838;2022-08-30T08:23:54;4.50;;;4.10;;
32365;SDS011;18837;46.832;16.838;2022-08-30T08:26:20;4.93;;;4.43;;
32365;SDS011;18837;46.832;16.838;2022-08-30T08:28:47;5.00;;;4.50;;
32365;SDS011;18837;46.832;16.838;2022-08-30T08:31:17;4.63;;;4.20;;
32365;SDS011;18837;46.832;16.838;2022-08-30T08:33:45;5.13;;;3.80;;
32365;SDS011;18837;46.832;16.838;2022-08-30T08:36:11;5.40;;;4.20;;
32365;SDS011;18837;46.832;16.838;2022-08-30T08:38:37;4.40;;;3.83;;
32365;SDS011;18837;46.832;16.838;2022-08-30T08:43:39;4.87;;;4.43;;
32365;SDS011;18837;46.832;16.838;2022-08-30T08:46:15;5.57;;;4.37;;
32365;SDS011;18837;46.832;16.838;2022-08-30T08:48:48;5.43;;;3.87;;
32365;SDS011;18837;46.832;16.838;2022-08-30T08:51:20;4.50;;;4.10;;
32365;SDS011;18837;46.832;16.838;2022-08-30T08:54:12;4.67;;;4.17;;
32365;SDS011;18837;46.832;16.838;2022-08-30T08:57:25;4.60;;;4.20;;
32365;SDS011;18837;46.832;16.838;2022-08-30T08:59:57;5.07;;;4.00;;
32365;SDS011;18837;46.832;16.838;2022-08-30T09:02:27;4.33;;;3.97;;
32365;SDS011;18837;46.832;16.838;2022-08-30T09:04:59;4.87;;;4.43;;
32365;SDS011;18837;46.832;16.838;2022-08-30T09:07:28;4.63;;;4.23;;
32365;SDS011;18837;46.832;16.838;2022-08-30T09:09:58;5.40;;;4.53;;
32365;SDS011;18837;46.832;16.838;2022-08-30T09:12:25;4.63;;;4.00;;
32365;SDS011;18837;46.832;16.838;2022-08-30T09:15:01;4.07;;;3.70;;
32365;SDS011;18837;46.832;16.838;2022-08-30T09:17:58;4.60;;;4.20;;
32365;SDS011;18837;46.832;16.838;2022-08-30T09:20:41;3.97;;;3.67;;
32365;SDS011;18837;46.832;16.838;2022-08-30T09:25:59;4.70;;;4.23;;
32365;SDS011;18837;46.832;16.838;2022-08-30T09:28:30;4.33;;;3.60;;
32365;SDS011;18837;46.832;16.838;2022-08-30T09:34:23;5.63;;;4.40;;
32365;SDS011;18837;46.832;16.838;2022-08-30T09:36:50;4.50;;;4.10;;
32365;SDS011;18837;46.832;16.838;2022-08-30T09:39:19;4.40;;;4.00;;
32365;SDS011;18837;46.832;16.838;2022-08-30T09:42:09;5.70;;;4.40;;
32365;SDS011;18837;46.832;16.838;2022-08-30T09:44:44;5.00;;;4.30;;
32365;SDS011;18837;46.832;16.838;2022-08-30T09:47:28;4.90;;;4.10;;
32365;SDS011;18837;46.832;16.838;2022-08-30T09:50:04;6.43;;;4.33;;
32365;SDS011;18837;46.832;16.838;2022-08-30T09:55:33;4.20;;;3.80;;
32365;SDS011;18837;46.832;16.838;2022-08-30T09:58:08;4.33;;;3.93;;
32365;SDS011;18837;46.832;16.838;2022-08-30T10:03:30;4.20;;;3.80;;
32365;SDS011;18837;46.832;16.838;2022-08-30T10:11:48;4.50;;;4.10;;
32365;SDS011;18837;46.832;16.838;2022-08-30T10:14:23;4.60;;;3.90;;
32365;SDS011;18837;46.832;16.838;2022-08-30T10:19:45;4.60;;;4.20;;
32365;SDS011;18837;46.832;16.838;2022-08-30T10:25:45;4.97;;;4.47;;
32365;SDS011;18837;46.832;16.838;2022-08-30T10:28:25;4.73;;;4.30;;
32365;SDS011;18837;46.832;16.838;2022-08-30T10:34:00;4.80;;;4.40;;
32365;SDS011;18837;46.832;16.838;2022-08-30T10:36:34;4.90;;;4.40;;
32365;SDS011;18837;46.832;16.838;2022-08-30T10:39:16;4.63;;;4.17;;
32365;SDS011;18837;46.832;16.838;2022-08-30T10:45:06;4.83;;;4.40;;
32365;SDS011;18837;46.832;16.838;2022-08-30T10:50:13;4.40;;;4.00;;
32365;SDS011;18837;46.832;16.838;2022-08-30T10:53:39;4.77;;;4.37;;
32365;SDS011;18837;46.832;16.838;2022-08-30T10:58:45;5.63;;;4.53;;
32365;SDS011;18837;46.832;16.838;2022-08-30T11:01:28;4.53;;;4.13;;
32365;SDS011;18837;46.832;16.838;2022-08-30T11:04:00;4.43;;;4.07;;
32365;SDS011;18837;46.832;16.838;2022-08-30T11:12:36;5.47;;;3.73;;
32365;SDS011;18837;46.832;16.838;2022-08-30T11:15:28;4.83;;;4.33;;
32365;SDS011;18837;46.832;16.838;2022-08-30T11:26:00;4.20;;;3.80;;
32365;SDS011;18837;46.832;16.838;2022-08-30T11:33:45;4.47;;;3.90;;
32365;SDS011;18837;46.832;16.838;2022-08-30T11:38:57;4.50;;;4.10;;
32365;SDS011;18837;46.832;16.838;2022-08-30T11:41:33;4.70;;;4.00;;
32365;SDS011;18837;46.832;16.838;2022-08-30T11:46:50;3.90;;;3.60;;
32365;SDS011;18837;46.832;16.838;2022-08-30T11:49:26;5.00;;;4.10;;
32365;SDS011;18837;46.832;16.838;2022-08-30T11:52:18;4.63;;;4.17;;
32365;SDS011;18837;46.832;16.838;2022-08-30T11:55:21;4.77;;;4.13;;
32365;SDS011;18837;46.832;16.838;2022-08-30T12:00:43;3.93;;;3.53;;
32365;SDS011;18837;46.832;16.838;2022-08-30T12:21:26;4.37;;;3.97;;
32365;SDS011;18837;46.832;16.838;2022-08-30T12:29:59;5.10;;;4.30;;
32365;SDS011;18837;46.832;16.838;2022-08-30T12:32:28;4.10;;;3.80;;
32365;SDS011;18837;46.832;16.838;2022-08-30T12:34:56;4.43;;;3.90;;
32365;SDS011;18837;46.832;16.838;2022-08-30T12:37:31;5.03;;;3.80;;
32365;SDS011;18837;46.832;16.838;2022-08-30T12:40:07;4.23;;;3.80;;
32365;SDS011;18837;46.832;16.838;2022-08-30T12:42:40;5.00;;;3.83;;
32365;SDS011;18837;46.832;16.838;2022-08-30T12:45:14;3.87;;;3.47;;
32365;SDS011;18837;46.832;16.838;2022-08-30T12:47:51;4.37;;;3.87;;
32365;SDS011;18837;46.832;16.838;2022-08-30T12:50:45;4.40;;;4.00;;
32365;SDS011;18837;46.832;16.838;2022-08-30T12:53:20;4.10;;;3.70;;
32365;SDS011;18837;46.832;16.838;2022-08-30T12:56:00;4.10;;;3.70;;
32365;SDS011;18837;46.832;16.838;2022-08-30T12:58:47;4.50;;;4.10;;
32365;SDS011;18837;46.832;16.838;2022-08-30T13:01:32;3.90;;;3.43;;
32365;SDS011;18837;46.832;16.838;2022-08-30T13:06:48;3.77;;;3.47;;
32365;SDS011;18837;46.832;16.838;2022-08-30T13:09:22;3.80;;;3.50;;
32365;SDS011;18837;46.832;16.838;2022-08-30T13:12:00;4.33;;;3.70;;
32365;SDS011;18837;46.832;16.838;2022-08-30T13:19:59;3.90;;;3.50;;
32365;SDS011;18837;46.832;16.838;2022-08-30T13:25:02;5.83;;;3.93;;
32365;SDS011;18837;46.832;16.838;2022-08-30T13:27:31;3.90;;;3.50;;
32365;SDS011;18837;46.832;16.838;2022-08-30T13:30:06;5.00;;;3.87;;
32365;SDS011;18837;46.832;16.838;2022-08-30T13:32:33;3.77;;;3.47;;
32365;SDS011;18837;46.832;16.838;2022-08-30T13:35:02;5.77;;;4.27;;
32365;SDS011;18837;46.832;16.838;2022-08-30T13:37:30;10.03;;;4.33;;
32365;SDS011;18837;46.832;16.838;2022-08-30T13:39:56;7.40;;;4.13;;
32365;SDS011;18837;46.832;16.838;2022-08-30T13:42:22;6.30;;;4.10;;
32365;SDS011;18837;46.832;16.838;2022-08-30T13:44:49;10.00;;;4.23;;
32365;SDS011;18837;46.832;16.838;2022-08-30T13:47:15;7.30;;;4.00;;
32365;SDS011;18837;46.832;16.838;2022-08-30T13:49:42;4.47;;;4.03;;
32365;SDS011;18837;46.832;16.838;2022-08-30T13:52:10;5.23;;;3.37;;
32365;SDS011;18837;46.832;16.838;2022-08-30T13:54:42;5.50;;;3.90;;
32365;SDS011;18837;46.832;16.838;2022-08-30T13:57:08;6.57;;;4.00;;
32365;SDS011;18837;46.832;16.838;2022-08-30T13:59:34;8.07;;;4.10;;
32365;SDS011;18837;46.832;16.838;2022-08-30T14:02:00;5.77;;;3.80;;
32365;SDS011;18837;46.832;16.838;2022-08-30T14:04:27;5.07;;;3.67;;
32365;SDS011;18837;46.832;16.838;2022-08-30T14:06:53;5.67;;;3.70;;
32365;SDS011;18837;46.832;16.838;2022-08-30T14:09:19;4.70;;;4.13;;
32365;SDS011;18837;46.832;16.838;2022-08-30T14:11:45;5.20;;;3.63;;
32365;SDS011;18837;46.832;16.838;2022-08-30T14:14:11;7.10;;;3.97;;
32365;SDS011;18837;46.832;16.838;2022-08-30T14:16:39;7.00;;;4.20;;
32365;SDS011;18837;46.832;16.838;2022-08-30T14:19:06;6.80;;;4.37;;
32365;SDS011;18837;46.832;16.838;2022-08-30T14:21:33;6.03;;;4.00;;
32365;SDS011;18837;46.832;16.838;2022-08-30T14:24:00;7.60;;;4.60;;
32365;SDS011;18837;46.832;16.838;2022-08-30T14:26:27;12.60;;;5.23;;
32365;SDS011;18837;46.832;16.838;2022-08-30T14:28:54;6.37;;;4.07;;
32365;SDS011;18837;46.832;16.838;2022-08-30T14:31:20;7.60;;;3.77;;
32365;SDS011;18837;46.832;16.838;2022-08-30T14:33:47;9.30;;;3.53;;
32365;SDS011;18837;46.832;16.838;2022-08-30T14:36:13;4.50;;;3.37;;
32365;SDS011;18837;46.832;16.838;2022-08-30T14:38:39;6.50;;;3.60;;
32365;SDS011;18837;46.832;16.838;2022-08-30T14:41:06;6.53;;;3.93;;
32365;SDS011;18837;46.832;16.838;2022-08-30T14:43:32;5.23;;;4.13;;
32365;SDS011;18837;46.832;16.838;2022-08-30T14:45:58;8.37;;;3.63;;
32365;SDS011;18837;46.832;16.838;2022-08-30T14:48:25;6.00;;;3.90;;
32365;SDS011;18837;46.832;16.838;2022-08-30T14:50:51;4.07;;;3.73;;
32365;SDS011;18837;46.832;16.838;2022-08-30T14:53:17;4.80;;;4.30;;
32365;SDS011;18837;46.832;16.838;2022-08-30T14:55:43;6.43;;;4.27;;
32365;SDS011;18837;46.832;16.838;2022-08-30T14:58:09;6.70;;;4.10;;
32365;SDS011;18837;46.832;16.838;2022-08-30T15:00:38;4.73;;;3.67;;
32365;SDS011;18837;46.832;16.838;2022-08-30T15:03:05;6.03;;;4.33;;
32365;SDS011;18837;46.832;16.838;2022-08-30T15:05:32;4.53;;;3.63;;
32365;SDS011;18837;46.832;16.838;2022-08-30T15:07:58;5.13;;;3.77;;
32365;SDS011;18837;46.832;16.838;2022-08-30T15:10:24;3.70;;;3.40;;
32365;SDS011;18837;46.832;16.838;2022-08-30T15:12:50;3.47;;;3.17;;
32365;SDS011;18837;46.832;16.838;2022-08-30T15:15:19;4.10;;;3.70;;
32365;SDS011;18837;46.832;16.838;2022-08-30T15:17:48;4.33;;;3.50;;
32365;SDS011;18837;46.832;16.838;2022-08-30T15:20:15;4.17;;;3.37;;
32365;SDS011;18837;46.832;16.838;2022-08-30T15:22:43;4.53;;;3.33;;
32365;SDS011;18837;46.832;16.838;2022-08-30T15:25:10;4.33;;;3.50;;
32365;SDS011;18837;46.832;16.838;2022-08-30T15:27:36;4.47;;;3.93;;
32365;SDS011;18837;46.832;16.838;2022-08-30T15:30:03;3.93;;;3.50;;
32365;SDS011;18837;46.832;16.838;2022-08-30T15:32:30;4.10;;;3.63;;
32365;SDS011;18837;46.832;16.838;2022-08-30T15:34:56;6.07;;;3.80;;
32365;SDS011;18837;46.832;16.838;2022-08-30T15:37:24;5.43;;;3.40;;
32365;SDS011;18837;46.832;16.838;2022-08-30T15:39:52;5.10;;;3.60;;
32365;SDS011;18837;46.832;16.838;2022-08-30T15:42:18;4.03;;;3.53;;
32365;SDS011;18837;46.832;16.838;2022-08-30T15:44:53;5.00;;;3.60;;
32365;SDS011;18837;46.832;16.838;2022-08-30T15:47:20;6.20;;;3.60;;
32365;SDS011;18837;46.832;16.838;2022-08-30T15:49:58;7.20;;;3.83;;
32365;SDS011;18837;46.832;16.838;2022-08-30T15:52:27;6.27;;;4.30;;
32365;SDS011;18837;46.832;16.838;2022-08-30T15:54:54;7.87;;;4.03;;
32365;SDS011;18837;46.832;16.838;2022-08-30T15:57:20;5.57;;;3.70;;
32365;SDS011;18837;46.832;16.838;2022-08-30T15:59:47;7.43;;;3.70;;
32365;SDS011;18837;46.832;16.838;2022-08-30T16:02:12;5.17;;;3.53;;
32365;SDS011;18837;46.832;16.838;2022-08-30T16:04:39;5.33;;;3.70;;
32365;SDS011;18837;46.832;16.838;2022-08-30T16:07:05;6.03;;;3.77;;
32365;SDS011;18837;46.832;16.838;2022-08-30T16:09:32;8.40;;;3.77;;
32365;SDS011;18837;46.832;16.838;2022-08-30T16:11:59;4.53;;;3.20;;
32365;SDS011;18837;46.832;16.838;2022-08-30T16:14:27;6.90;;;3.67;;
32365;SDS011;18837;46.832;16.838;2022-08-30T16:16:54;5.87;;;3.73;;
32365;SDS011;18837;46.832;16.838;2022-08-30T16:19:21;7.37;;;3.87;;
32365;SDS011;18837;46.832;16.838;2022-08-30T16:21:46;5.30;;;3.93;;
32365;SDS011;18837;46.832;16.838;2022-08-30T16:24:19;4.47;;;3.43;;
32365;SDS011;18837;46.832;16.838;2022-08-30T16:26:46;7.40;;;3.97;;
32365;SDS011;18837;46.832;16.838;2022-08-30T16:29:14;3.70;;;3.40;;
32365;SDS011;18837;46.832;16.838;2022-08-30T16:31:41;3.97;;;3.23;;
32365;SDS011;18837;46.832;16.838;2022-08-30T16:34:08;3.87;;;3.47;;
32365;SDS011;18837;46.832;16.838;2022-08-30T16:36:35;5.20;;;3.23;;
32365;SDS011;18837;46.832;16.838;2022-08-30T16:39:02;5.00;;;3.87;;
32365;SDS011;18837;46.832;16.838;2022-08-30T16:41:29;5.73;;;3.60;;
32365;SDS011;18837;46.832;16.838;2022-08-30T16:43:55;4.43;;;3.40;;
32365;SDS011;18837;46.832;16.838;2022-08-30T16:46:22;6.63;;;3.40;;
32365;SDS011;18837;46.832;16.838;2022-08-30T16:48:49;4.50;;;3.60;;
32365;SDS011;18837;46.832;16.838;2022-08-30T16:51:16;5.03;;;3.40;;
32365;SDS011;18837;46.832;16.838;2022-08-30T16:53:44;4.23;;;3.83;;
32365;SDS011;18837;46.832;16.838;2022-08-30T16:56:15;4.40;;;3.63;;
32365;SDS011;18837;46.832;16.838;2022-08-30T16:58:44;4.77;;;3.90;;
32365;SDS011;18837;46.832;16.838;2022-08-30T17:01:14;4.03;;;3.13;;
32365;SDS011;18837;46.832;16.838;2022-08-30T17:03:43;4.83;;;3.77;;
32365;SDS011;18837;46.832;16.838;2022-08-30T17:06:10;6.13;;;3.70;;
32365;SDS011;18837;46.832;16.838;2022-08-30T17:08:38;4.37;;;3.23;;